LDZALDSP

Guest
Details From LDZA - Zagreb
To LDSP - SPLIT
Flight Number -
Tags decoded
Created
Modified
Stats Distance 142 nm / 264 km
Max Altitude 0 ft / 0 m
Waypoints 8
Social Downloads 8
Likes 0
Share VATSIM

Download

Looking for another format? Having issues loading an existing format? Contact us
Advertisement - Login to hide

Notes

Requested: LDZA R2451 IZA83 TUPUS SONIK SIRMI UNIPA LDSP

Route

LDZA R2451 IZA83 TUPUS SONIK SIRMI UNIPA LDSP

ID Type Via Altitude Latitude Longitude Leg Dist Tot Dist Heading (true) Name
O LDZA APT - 0 ft / 0 m 45.74189˚ 16.06720˚ - 0 nm - Zagreb
R2451 FIX - 0 ft / 0 m 45.73188˚ 16.05197˚ 0 nm 0 nm 227° / 227° -
IZA83 FIX - 0 ft / 0 m 45.64335˚ 15.90541˚ 8 nm 9 nm 229° / 229° -
TUPUS FIX - 0 ft / 0 m 45.22083˚ 15.88972˚ 25 nm 34 nm 181° / 181° -
SONIK FIX - 0 ft / 0 m 44.44833˚ 16.14333˚ 47 nm 82 nm 167° / 167° -
SIRMI FIX - 0 ft / 0 m 44.15000˚ 16.30361˚ 19 nm 101 nm 159° / 159° -
UNIPA FIX - 0 ft / 0 m 44.02944˚ 16.48278˚ 10 nm 111 nm 133° / 133° -
O LDSP APT - 0 ft / 0 m 43.53903˚ 16.29811˚ 30 nm 142 nm 195° / 195° SPLIT

Altitude Profile

Advertisement - Login to hide

LDZA

Details ICAO LDZA (ZAG)
Name Zagreb
Region Croatia
Timezone Europe/Zagreb (UTC+2.0)
Stats Elevation 353 ft / 108 m (AMSL)
Location 45.741890° 16.067200°
Runways 1
Magnetic Variation 4.008° E

METAR

LDZA 220030Z 24003KT CAVOK 12/10 Q1013 NOSIG

Decode

TAF

TAF LDZA 212325Z 2200/2300 VRB02KT CAVOK TX24/2213Z TN12/2204Z PROB40 TEMPO 2211/2219 20015G25KT TSRA SCT030CB BKN035

Decode

Departure Runways

ID Width Length Bearing (true) Bearing (mag) Surface Threshold Offset Overrun Length
05 148 ft / 45 m 10,659 ft / 3,249 m 46.69° 42.68° Asphalt 0 ft / 0 m 195 ft / 59 m
23 148 ft / 45 m 10,659 ft / 3,249 m 226.71° 222.70° Asphalt 0 ft / 0 m 195 ft / 59 m

LDSP

Details ICAO LDSP (SPU)
Name SPLIT
Region Croatia
Timezone Europe/Zagreb (UTC+2.0)
Stats Elevation 79 ft / 24 m (AMSL)
Location 43.539026° 16.298112°
Runways 1
Magnetic Variation 3.884° E

METAR

LDSP 220030Z AUTO 01004KT CAVOK 18/15 Q1012

Decode

TAF

TAF LDSP 212325Z 2200/2300 09006KT 9999 SCT040 TX25/2212Z TN18/2203Z PROB30 TEMPO 2204/2217 TSRA FEW030CB BKN035 TEMPO 2212/2217 23008KT

Decode

Destination Runways

ID Width Length Bearing (true) Bearing (mag) Surface Threshold Offset Overrun Length
05 148 ft / 45 m 8,357 ft / 2,547 m 52.48° 48.60° Asphalt 0 ft / 0 m 76 ft / 23 m
23 148 ft / 45 m 8,357 ft / 2,547 m 232.50° 228.62° Asphalt 525 ft / 160 m 820 ft / 250 m

Approach Navaids

Runway Type Ident Frequency Range Bearing (true) Bearing (mag) Slope Elevation
05 Localiser IST 110.50 MHz 25 nm / 46 km 52.57° 48.69° - 69 ft / 21 m (AMSL)
05 Glidescope IST 110.50 MHz 25 nm / 46 km 52.57° 48.69° 3.00° 52 ft / 16 m (AMSL)

Popular Alternatives